createdAt,value
2018-10-12T00:00:58.872Z,98000.00
2018-10-12T00:05:01.187Z,98000.00
2018-10-12T00:09:04.701Z,97998.00
2018-10-12T00:13:07.046Z,98003.00
2018-10-12T00:17:09.446Z,98003.00
2018-10-12T00:21:11.929Z,98013.00
2018-10-12T00:25:14.332Z,98028.00
2018-10-12T00:29:16.646Z,98028.00
2018-10-12T00:33:19.072Z,98043.00
2018-10-12T00:37:21.551Z,98059.00
2018-10-12T00:41:23.860Z,98060.00
2018-10-12T00:45:26.205Z,98063.00
2018-10-12T00:49:28.528Z,98051.00
2018-10-12T00:53:30.851Z,98059.00
2018-10-12T00:57:33.192Z,98060.00
2018-10-12T01:01:35.526Z,98068.00
2018-10-12T01:05:37.905Z,98069.00
2018-10-12T01:09:40.380Z,98072.00
2018-10-12T01:13:42.751Z,98064.00
2018-10-12T01:17:45.149Z,98062.00
2018-10-12T01:21:47.567Z,98063.00
2018-10-12T01:25:49.936Z,98066.00
2018-10-12T01:29:52.709Z,98060.00
2018-10-12T01:33:55.091Z,98058.00
2018-10-12T01:37:57.494Z,98060.00
2018-10-12T01:41:59.807Z,98063.00
2018-10-12T01:46:02.155Z,98066.00
2018-10-12T01:50:04.514Z,98067.00
2018-10-12T01:54:06.826Z,98070.00
2018-10-12T01:58:09.215Z,98071.00
2018-10-12T02:02:11.590Z,98074.00
2018-10-12T02:06:13.971Z,98085.00
2018-10-12T02:10:16.406Z,98073.00
2018-10-12T02:14:18.756Z,98087.00
2018-10-12T02:18:21.175Z,98083.00
2018-10-12T02:22:23.594Z,98090.00
2018-10-12T02:26:25.931Z,98101.00
2018-10-12T02:30:28.308Z,98117.00
2018-10-12T02:34:30.657Z,98122.00
2018-10-12T02:38:33.084Z,98118.00
2018-10-12T02:42:35.429Z,98124.00
2018-10-12T02:46:37.780Z,98131.00
2018-10-12T02:50:40.060Z,98131.00
2018-10-12T02:54:42.339Z,98132.00
2018-10-12T02:58:44.646Z,98135.00
2018-10-12T03:02:47.019Z,98127.00
2018-10-12T03:06:49.428Z,98143.00
2018-10-12T03:10:51.724Z,98144.00
2018-10-12T03:14:54.055Z,98157.00
2018-10-12T03:18:56.420Z,98162.00
2018-10-12T03:22:58.706Z,98157.00
2018-10-12T03:27:01.210Z,98162.00
2018-10-12T03:31:04.183Z,98157.00
2018-10-12T03:35:06.579Z,98157.00
2018-10-12T03:39:09.066Z,98158.00
2018-10-12T03:43:11.536Z,98165.00
2018-10-12T03:47:13.854Z,98176.00
2018-10-12T03:51:16.545Z,98177.00
2018-10-12T03:55:18.930Z,98195.00
2018-10-12T03:59:21.245Z,98188.00
2018-10-12T04:03:23.689Z,98194.00
2018-10-12T04:07:26.099Z,98196.00
2018-10-12T04:11:28.464Z,98200.00
2018-10-12T04:15:30.839Z,98207.00
2018-10-12T04:19:42.572Z,98210.00
2018-10-12T04:23:44.870Z,98217.00
2018-10-12T04:27:47.240Z,98211.00
2018-10-12T04:31:49.559Z,98211.00
2018-10-12T04:35:51.849Z,98192.00
2018-10-12T04:39:57.687Z,98208.00
2018-10-12T04:44:01.420Z,98192.00
2018-10-12T04:48:03.784Z,98198.00
2018-10-12T04:52:06.428Z,98207.00
2018-10-12T04:56:10.577Z,98216.00
2018-10-12T05:00:12.875Z,98248.00
2018-10-12T05:04:15.318Z,98261.00
2018-10-12T05:08:17.801Z,98248.00
2018-10-12T05:12:20.145Z,98252.00
2018-10-12T05:16:22.471Z,98247.00
2018-10-12T05:20:24.892Z,98250.00
2018-10-12T05:24:27.204Z,98261.00
2018-10-12T05:28:31.475Z,98261.00
2018-10-12T05:32:33.769Z,98270.00
2018-10-12T05:36:36.123Z,98278.00
2018-10-12T05:40:38.510Z,98273.00
2018-10-12T05:44:40.919Z,98290.00
2018-10-12T05:48:54.632Z,98299.00
2018-10-12T05:52:56.916Z,98305.00
2018-10-12T05:56:59.340Z,98308.00
2018-10-12T06:01:01.707Z,98314.00
2018-10-12T06:05:04.309Z,98314.00
2018-10-12T06:09:07.408Z,98318.00
2018-10-12T06:13:09.797Z,98309.00
2018-10-12T06:17:12.252Z,98326.00
2018-10-12T06:21:14.609Z,98328.00
2018-10-12T06:25:17.064Z,98342.00
2018-10-12T06:29:19.433Z,98340.00
2018-10-12T06:33:21.865Z,98351.00
2018-10-12T06:37:24.229Z,98358.00
2018-10-12T06:41:26.623Z,98375.00
2018-10-12T06:45:29.070Z,98384.00
2018-10-12T06:49:31.408Z,98394.00
2018-10-12T06:53:33.915Z,98393.00
2018-10-12T06:57:36.213Z,98403.00
2018-10-12T07:01:38.609Z,98413.00
2018-10-12T07:05:41.133Z,98425.00
2018-10-12T07:09:43.594Z,98430.00
2018-10-12T07:13:46.478Z,98436.00
2018-10-12T07:17:48.783Z,98443.00
2018-10-12T07:21:51.148Z,98436.00
2018-10-12T07:25:53.508Z,98436.00
2018-10-12T07:29:55.828Z,98441.00
2018-10-12T07:33:58.241Z,98449.00
2018-10-12T07:38:00.600Z,98448.00
2018-10-12T07:42:03.062Z,98456.00
2018-10-12T07:46:05.857Z,98459.00
2018-10-12T07:50:08.273Z,98459.00
2018-10-12T07:54:10.652Z,98472.00
2018-10-12T07:58:13.057Z,98469.00
2018-10-12T08:02:15.463Z,98474.00
2018-10-12T08:06:27.294Z,98465.00
2018-10-12T08:10:30.349Z,98476.00
2018-10-12T08:14:32.698Z,98477.00
2018-10-12T08:18:35.246Z,98487.00
2018-10-12T08:22:37.659Z,98498.00
2018-10-12T08:26:39.961Z,98501.00
2018-10-12T08:30:42.441Z,98500.00
2018-10-12T08:34:44.764Z,98518.00
2018-10-12T08:38:47.246Z,98513.00
2018-10-12T08:42:49.607Z,98520.00
2018-10-12T08:46:51.982Z,98521.00
2018-10-12T08:50:54.357Z,98526.00
2018-10-12T08:54:56.826Z,98542.00
2018-10-12T08:58:59.578Z,98535.00
2018-10-12T09:03:02.050Z,98541.00
2018-10-12T09:07:04.426Z,98535.00
2018-10-12T09:11:06.890Z,98541.00
2018-10-12T09:15:09.248Z,98548.00
2018-10-12T09:19:11.636Z,98540.00
2018-10-12T09:23:14.028Z,98550.00
2018-10-12T09:27:16.486Z,98549.00
2018-10-12T09:31:19.025Z,98545.00
2018-10-12T09:35:21.398Z,98544.00
2018-10-12T09:39:23.758Z,98546.00
2018-10-12T09:43:26.115Z,98544.00
2018-10-12T09:47:28.512Z,98553.00
2018-10-12T09:51:30.887Z,98559.00
2018-10-12T09:55:33.207Z,98557.00
2018-10-12T09:59:35.558Z,98565.00
2018-10-12T10:03:43.493Z,98558.00
2018-10-12T10:07:46.553Z,98558.00
2018-10-12T10:11:49.248Z,98556.00
2018-10-12T10:15:51.136Z,98559.00
2018-10-12T10:19:53.806Z,98564.00
2018-10-12T10:23:56.273Z,98562.00
2018-10-12T10:27:58.578Z,98555.00
2018-10-12T10:32:00.926Z,98563.00
2018-10-12T10:36:03.265Z,98564.00
2018-10-12T10:40:05.692Z,98552.00
2018-10-12T10:44:08.027Z,98548.00
2018-10-12T10:48:10.342Z,98551.00
2018-10-12T10:52:12.661Z,98545.00
2018-10-12T10:56:15.927Z,98542.00
2018-10-12T11:00:18.247Z,98541.00
2018-10-12T11:04:20.566Z,98542.00
2018-10-12T11:08:22.868Z,98539.00
2018-10-12T11:12:25.450Z,98521.00
2018-10-12T11:16:27.696Z,98519.00
2018-10-12T11:20:30.126Z,98522.00
2018-10-12T11:24:32.608Z,98512.00
2018-10-12T11:28:35.162Z,98523.00
2018-10-12T11:32:37.628Z,98534.00
2018-10-12T11:36:39.978Z,98530.00
2018-10-12T11:40:42.378Z,98534.00
2018-10-12T11:44:44.808Z,98537.00
2018-10-12T11:48:47.238Z,98541.00
2018-10-12T11:52:49.603Z,98538.00
2018-10-12T11:56:53.109Z,98544.00
2018-10-12T12:00:55.597Z,98540.00
2018-10-12T12:04:58.116Z,98525.00
2018-10-12T12:09:00.597Z,98530.00
2018-10-12T12:13:03.032Z,98524.00
2018-10-12T12:17:05.431Z,98535.00
2018-10-12T12:21:07.825Z,98523.00
2018-10-12T12:25:10.293Z,98524.00
2018-10-12T12:29:12.656Z,98526.00
2018-10-12T12:33:15.016Z,98527.00
2018-10-12T12:37:17.459Z,98527.00
2018-10-12T12:41:19.850Z,98521.00
2018-10-12T12:45:22.145Z,98525.00
2018-10-12T12:49:24.791Z,98520.00
2018-10-12T12:53:26.886Z,98527.00
2018-10-12T12:57:29.437Z,98527.00
2018-10-12T13:01:31.790Z,98528.00
2018-10-12T13:05:34.149Z,98529.00
2018-10-12T13:09:36.529Z,98531.00
2018-10-12T13:13:38.894Z,98538.00
2018-10-12T13:17:41.217Z,98528.00
2018-10-12T13:21:43.625Z,98535.00
2018-10-12T13:25:46.078Z,98529.00
2018-10-12T13:29:48.357Z,98531.00
2018-10-12T13:33:50.687Z,98529.00
2018-10-12T13:37:53.071Z,98543.00
2018-10-12T13:41:55.470Z,98551.00
2018-10-12T13:45:57.850Z,98537.00
2018-10-12T13:50:00.545Z,98543.00
2018-10-12T13:54:03.014Z,98534.00
2018-10-12T13:58:05.410Z,98537.00
2018-10-12T14:02:07.796Z,98535.00
2018-10-12T14:06:10.768Z,98526.00
2018-10-12T14:10:13.173Z,98534.00
2018-10-12T14:14:15.609Z,98542.00
2018-10-12T14:18:18.392Z,98538.00
2018-10-12T14:22:20.876Z,98540.00
2018-10-12T14:26:23.199Z,98541.00
2018-10-12T14:30:25.821Z,98545.00
2018-10-12T14:34:28.203Z,98534.00
2018-10-12T14:38:31.370Z,98537.00
2018-10-12T14:42:34.895Z,98531.00
2018-10-12T14:46:37.875Z,98538.00
2018-10-12T14:50:40.831Z,98537.00
2018-10-12T14:54:43.435Z,98546.00
2018-10-12T14:58:45.769Z,98547.00
2018-10-12T15:02:48.215Z,98545.00
2018-10-12T15:06:50.626Z,98558.00
2018-10-12T15:10:52.931Z,98555.00
2018-10-12T15:15:19.430Z,98551.00
2018-10-12T15:19:21.794Z,98557.00
2018-10-12T15:23:24.200Z,98551.00
2018-10-12T15:27:26.570Z,98553.00
2018-10-12T15:31:29.169Z,98558.00
2018-10-12T15:35:31.570Z,98554.00
2018-10-12T15:39:34.029Z,98555.00
2018-10-12T15:43:36.555Z,98554.00
2018-10-12T15:47:38.945Z,98550.00
2018-10-12T15:51:41.340Z,98561.00
2018-10-12T15:55:43.689Z,98562.00
2018-10-12T15:59:47.105Z,98555.00
2018-10-12T16:03:49.553Z,98569.00
2018-10-12T16:07:51.929Z,98565.00
2018-10-12T16:11:54.420Z,98568.00
2018-10-12T16:15:56.926Z,98563.00
2018-10-12T16:19:59.272Z,98568.00
2018-10-12T16:24:07.784Z,98558.00
2018-10-12T16:28:10.274Z,98568.00
2018-10-12T16:32:12.657Z,98568.00
2018-10-12T16:36:15.143Z,98563.00
2018-10-12T16:40:17.383Z,98565.00
2018-10-12T16:44:19.739Z,98565.00
2018-10-12T16:48:22.157Z,98561.00
2018-10-12T16:52:24.533Z,98564.00
2018-10-12T16:56:27.318Z,98561.00
2018-10-12T17:00:29.929Z,98570.00
2018-10-12T17:04:32.413Z,98575.00
2018-10-12T17:08:34.897Z,98575.00
2018-10-12T17:12:37.400Z,98576.00
2018-10-12T17:16:39.979Z,98576.00
2018-10-12T17:20:42.608Z,98569.00
2018-10-12T17:24:45.094Z,98577.00
2018-10-12T17:28:47.443Z,98576.00
2018-10-12T17:32:49.904Z,98584.00
2018-10-12T17:36:52.317Z,98587.00
2018-10-12T17:40:54.833Z,98589.00
2018-10-12T17:44:57.310Z,98592.00
2018-10-12T17:48:59.687Z,98587.00
2018-10-12T17:53:02.207Z,98583.00
2018-10-12T17:57:06.237Z,98595.00
2018-10-12T18:01:08.699Z,98597.00
2018-10-12T18:05:11.566Z,98595.00
2018-10-12T18:09:14.045Z,98609.00
2018-10-12T18:13:16.534Z,98607.00
2018-10-12T18:17:18.938Z,98602.00
2018-10-12T18:21:21.479Z,98612.00
2018-10-12T18:25:23.832Z,98624.00
2018-10-12T18:29:26.461Z,98617.00
2018-10-12T18:33:28.889Z,98609.00
2018-10-12T18:37:31.419Z,98606.00
2018-10-12T18:41:33.910Z,98602.00
2018-10-12T18:45:36.461Z,98613.00
2018-10-12T18:49:39.356Z,98613.00
2018-10-12T18:53:41.790Z,98620.00
2018-10-12T18:57:44.239Z,98617.00
2018-10-12T19:01:46.883Z,98618.00
2018-10-12T19:05:49.374Z,98618.00
2018-10-12T19:09:51.872Z,98613.00
2018-10-12T19:13:54.461Z,98629.00
2018-10-12T19:17:56.858Z,98622.00
2018-10-12T19:21:59.474Z,98618.00
2018-10-12T19:26:02.602Z,98619.00
2018-10-12T19:30:05.163Z,98627.00
2018-10-12T19:34:07.702Z,98624.00
2018-10-12T19:38:10.175Z,98620.00
2018-10-12T19:42:13.273Z,98629.00
2018-10-12T19:46:16.091Z,98632.00
2018-10-12T19:50:18.501Z,98629.00
2018-10-12T19:54:21.154Z,98632.00
2018-10-12T19:58:23.649Z,98631.00
2018-10-12T20:02:26.041Z,98633.00
2018-10-12T20:06:28.798Z,98632.00
2018-10-12T20:10:31.273Z,98642.00
2018-10-12T20:14:34.957Z,98649.00
2018-10-12T20:18:37.917Z,98643.00
2018-10-12T20:22:41.728Z,98646.00
2018-10-12T20:26:45.617Z,98647.00
2018-10-12T20:30:48.051Z,98650.00
2018-10-12T20:34:50.518Z,98643.00
2018-10-12T20:38:53.239Z,98642.00
2018-10-12T20:42:55.663Z,98642.00
2018-10-12T20:46:58.487Z,98646.00
2018-10-12T20:51:00.888Z,98656.00
2018-10-12T20:55:03.369Z,98648.00
2018-10-12T20:59:06.432Z,98649.00
2018-10-12T21:03:09.036Z,98646.00
2018-10-12T21:07:11.453Z,98643.00
2018-10-12T21:11:13.841Z,98642.00
2018-10-12T21:15:16.226Z,98645.00
2018-10-12T21:19:18.631Z,98635.00
2018-10-12T21:23:20.986Z,98638.00
2018-10-12T21:27:23.374Z,98636.00
2018-10-12T21:31:25.787Z,98640.00
2018-10-12T21:35:28.172Z,98636.00
2018-10-12T21:39:30.506Z,98641.00
2018-10-12T21:43:32.908Z,98644.00
2018-10-12T21:47:35.232Z,98639.00
2018-10-12T21:51:37.575Z,98638.00
2018-10-12T21:55:39.957Z,98633.00
2018-10-12T21:59:42.329Z,98635.00
2018-10-12T22:03:44.644Z,98631.00
2018-10-12T22:07:47.172Z,98623.00
2018-10-12T22:11:49.615Z,98629.00
2018-10-12T22:15:51.992Z,98624.00
2018-10-12T22:19:54.411Z,98619.00
2018-10-12T22:23:57.137Z,98619.00
2018-10-12T22:27:59.620Z,98609.00
2018-10-12T22:32:02.045Z,98606.00
2018-10-12T22:36:04.526Z,98613.00
2018-10-12T22:40:07.035Z,98603.00
2018-10-12T22:44:09.745Z,98607.00
2018-10-12T22:48:12.184Z,98598.00
2018-10-12T22:52:14.531Z,98596.00
2018-10-12T22:56:16.972Z,98591.00
2018-10-12T23:00:19.437Z,98600.00
2018-10-12T23:04:21.791Z,98592.00
2018-10-12T23:08:24.413Z,98581.00
2018-10-12T23:12:26.942Z,98581.00
2018-10-12T23:16:29.289Z,98587.00
2018-10-12T23:20:31.671Z,98581.00
2018-10-12T23:24:34.044Z,98578.00
2018-10-12T23:28:36.425Z,98577.00
2018-10-12T23:32:40.441Z,98574.00
2018-10-12T23:36:43.710Z,98579.00
2018-10-12T23:40:46.217Z,98581.00
2018-10-12T23:44:48.565Z,98575.00
2018-10-12T23:48:50.925Z,98574.00
2018-10-12T23:52:53.244Z,98570.00
2018-10-12T23:56:55.610Z,98577.00
